Japan Airlines Virtual Airport Information Service

Miyako Airport

ICAO: ROMY Country: Japan
Latitude: 24.7828 Longitude: 125.295
Latest Arrival : RAC838 (ROIG-ROMY) Latest Departure : RAC804 (ROMY-ROAH)


WX CaptureLIVE
Data provided by noaa.gov | Fetched at 08:37:02

METAR : ROMY 090800Z 19019KT 9999 FEW018 SCT/// 31/26 Q1004

TAF :


Runway Data for ROMY
Data provided by openaviationdata.com

Runway ID Mag Var Hdg Length Elevation Surface ILS Freq ILS Id ILS Slope
4 -4 42° 6574 ft 140 ft Asphalt -- -- --
22 -4 222° 6574 ft 140 ft Asphalt 108.9 IMY 3

Miyako Airport, Japan
Use only for reference purposes



Not for navigational purposes.